LFRV/VNE METAR and TAF weather

Enter ICAO airport designator
Station Type Date Time Source
LFRV METAR 2018/12/13 21:00 UTC NOAA

LFRV 132100Z AUTO 09008KT CAVOK 02/M00 Q1013


Station Type Date Time Source
LFRV Decoded METAR 2018/12/13 21:00 UTC NOAA

Station name not available
Dec 13, 2018 - 04:00 PM EST / 2018.12.13 2100 UTC
Wind: from the E (090 degrees) at 9 MPH (8 KT):0
Visibility: greater than 7 mile(s):0
Temperature: 35 F (2 C)
Windchill: 28 F (-2 C):1
Dew Point: 32 F (0 C)
Relative Humidity: 86%
Pressure (altimeter): 29.91 in. Hg (1013 hPa)
ob: LFRV 132100Z AUTO 09008KT CAVOK 02/M00 Q1013
cycle: 21

Station Type Date Time Source
LFRV TAF UTC NOAA

Error!


Example: see airport list